Time;durP1;ratioP1;P1;durP2;ratioP2;P2;SDS_P1;SDS_P2;PMS_P1;PMS_P2;Temp;Humidity;BMP_temperature;BMP_pressure;BME280_temperature;BME280_humidity;BME280_pressure;Samples;Min_cycle;Max_cycle;Signal;HPM_P1;HPM_P2
2021/08/12 00:00:04;;;;;;;0.40;0.10;;;;;;;19.12;59.65;100797.97;126632;1092;102877;-75
2021/08/12 00:02:32;;;;;;;0.40;0.10;;;;;;;19.10;59.61;100798.05;126479;1090;114311;-72
2021/08/12 00:04:59;;;;;;;0.40;0.10;;;;;;;19.12;59.52;100797.97;126611;1090;102912;-74
2021/08/12 00:07:26;;;;;;;0.40;0.10;;;;;;;19.05;59.77;100803.70;126534;1090;114287;-75
2021/08/12 00:09:55;;;;;;;0.40;0.10;;;;;;;19.01;59.77;100802.13;126602;1090;102884;-74
2021/08/12 00:12:22;;;;;;;0.40;0.10;;;;;;;18.96;60.15;100803.34;126631;1090;103106;-75
2021/08/12 00:14:49;;;;;;;0.40;0.10;;;;;;;18.98;60.14;100809.51;126456;1090;114175;-74
2021/08/12 00:17:16;;;;;;;0.40;0.10;;;;;;;18.97;60.28;100802.39;126581;1090;103006;-74
2021/08/12 00:19:44;;;;;;;0.40;0.10;;;;;;;18.88;60.14;100804.61;126510;1090;114313;-75
2021/08/12 00:22:11;;;;;;;0.40;0.10;;;;;;;18.86;60.39;100806.52;126547;1090;102948;-74
2021/08/12 00:24:38;;;;;;;0.40;0.10;;;;;;;18.86;60.48;100800.25;126535;1089;114454;-74
2021/08/12 00:27:05;;;;;;;0.40;0.10;;;;;;;18.90;60.29;100803.67;126553;1089;102900;-74
2021/08/12 00:29:33;;;;;;;0.40;0.10;;;;;;;18.90;60.11;100804.56;126590;1090;102943;-74
2021/08/12 00:32:00;;;;;;;0.40;0.10;;;;;;;18.84;60.04;100804.84;126424;1089;114259;-74
2021/08/12 00:34:27;;;;;;;0.40;0.10;;;;;;;18.77;60.11;100815.11;126555;1090;102959;-74
2021/08/12 00:36:54;;;;;;;0.40;0.10;;;;;;;18.80;60.55;100819.47;126491;1088;114649;-74
2021/08/12 00:39:22;;;;;;;0.40;0.10;;;;;;;18.81;60.60;100819.38;126583;1090;103079;-73
2021/08/12 00:41:49;;;;;;;0.40;0.03;;;;;;;18.83;60.78;100814.78;126607;1090;103010;-73
2021/08/12 00:44:16;;;;;;;0.40;0.10;;;;;;;18.70;61.08;100817.27;126450;1090;114390;-74
2021/08/12 00:46:44;;;;;;;0.40;0.10;;;;;;;18.66;61.22;100812.98;126595;1089;103017;-74
2021/08/12 00:49:11;;;;;;;0.40;0.10;;;;;;;18.67;60.95;100816.55;126532;1089;114292;-74
2021/08/12 00:51:40;;;;;;;0.40;0.10;;;;;;;18.63;61.32;100809.58;126601;1090;102879;-74
2021/08/12 00:54:07;;;;;;;0.40;0.10;;;;;;;18.50;61.60;100810.23;126597;1090;103093;-75
2021/08/12 00:56:34;;;;;;;0.40;0.10;;;;;;;18.46;61.63;100808.66;126388;1090;114979;-74
2021/08/12 00:59:02;;;;;;;0.40;0.10;;;;;;;18.43;61.83;100818.72;126619;1090;102894;-74
2021/08/12 01:01:29;;;;;;;0.40;0.10;;;;;;;18.53;61.70;100814.60;126444;1088;114442;-74
2021/08/12 01:04:01;;;;;;;0.40;0.10;;;;;;;18.50;61.44;100820.13;126459;1090;103046;-74
2021/08/12 01:06:31;;;;;;;0.40;0.10;;;;;;;18.42;61.71;100819.67;126445;1092;114543;-74
2021/08/12 01:09:11;;;;;;;0.40;0.10;;;;;;;18.26;62.06;100823.19;126515;1090;102984;-72
2021/08/12 01:11:43;;;;;;;0.40;0.10;;;;;;;18.23;62.14;100823.33;126554;1090;103406;-74
2021/08/12 01:14:36;;;;;;;0.40;0.10;;;;;;;18.16;62.28;100822.77;126525;1090;114375;-75
2021/08/12 01:17:07;;;;;;;0.40;0.10;;;;;;;18.04;62.55;100826.95;126577;1088;102903;-74
2021/08/12 01:19:46;;;;;;;0.40;0.10;;;;;;;17.93;63.01;100829.34;126508;1089;114312;-74
2021/08/12 01:22:20;;;;;;;0.40;0.10;;;;;;;17.90;63.20;100826.77;126493;1090;102968;-74
2021/08/12 01:24:51;;;;;;;0.40;0.10;;;;;;;17.91;62.96;100822.25;126488;1090;114381;-74
2021/08/12 01:27:19;;;;;;;0.40;0.10;;;;;;;18.01;62.69;100837.05;126649;1090;102927;-74
2021/08/12 01:29:51;;;;;;;0.40;0.10;;;;;;;17.96;62.86;100825.62;126560;1090;102940;-74
2021/08/12 01:32:44;;;;;;;0.40;0.10;;;;;;;17.97;62.82;100828.23;126502;1090;114326;-74
2021/08/12 01:35:16;;;;;;;0.40;0.10;;;;;;;18.00;62.89;100827.20;126548;1090;102970;-75
2021/08/12 01:38:02;;;;;;;0.40;0.10;;;;;;;18.08;62.53;100835.77;126428;1090;114536;-74
2021/08/12 01:40:34;;;;;;;0.40;0.10;;;;;;;18.10;62.66;100833.88;126638;1090;102871;-73
2021/08/12 01:43:09;;;;;;;0.40;0.10;;;;;;;18.06;62.59;100837.69;126413;1090;114558;-73
2021/08/12 01:45:36;;;;;;;0.40;0.10;;;;;;;18.09;62.67;100837.52;126500;1090;103027;-74
2021/08/12 01:48:04;;;;;;;0.40;0.10;;;;;;;18.11;62.57;100835.61;126575;1090;102935;-74
2021/08/12 01:50:31;;;;;;;0.40;0.10;;;;;;;18.05;62.48;100841.33;126445;1090;114297;-75
2021/08/12 01:53:00;;;;;;;0.40;0.10;;;;;;;18.06;62.39;100837.69;126613;1089;102895;-73
2021/08/12 01:55:31;;;;;;;0.40;0.10;;;;;;;18.04;62.43;100842.27;126418;1090;114286;-75
2021/08/12 01:58:00;;;;;;;0.40;0.10;;;;;;;18.07;62.32;100841.25;126536;1093;102853;-75
2021/08/12 02:00:30;;;;;;;0.40;0.10;;;;;;;18.04;62.20;100844.97;126457;1090;114453;-74
2021/08/12 02:02:59;;;;;;;0.40;0.10;;;;;;;18.01;62.53;100845.98;126517;1090;102928;-72
2021/08/12 02:05:27;;;;;;;0.40;0.10;;;;;;;17.98;62.41;100842.56;126530;1090;102914;-74
2021/08/12 02:07:54;;;;;;;0.40;0.10;;;;;;;18.01;62.29;100853.22;126413;1090;114364;-72
2021/08/12 02:10:21;;;;;;;0.40;0.10;;;;;;;18.01;62.27;100847.83;126583;1090;102907;-74
2021/08/12 02:12:49;;;;;;;0.40;0.10;;;;;;;17.93;62.33;100856.28;126443;1090;114466;-74
2021/08/12 02:15:16;;;;;;;0.40;0.10;;;;;;;17.95;62.39;100848.13;126542;1090;103158;-74
2021/08/12 02:17:43;;;;;;;0.40;0.10;;;;;;;17.98;62.25;100850.66;126595;1090;103550;-74
2021/08/12 02:20:14;;;;;;;0.40;0.10;;;;;;;17.92;62.55;100853.64;126471;1090;114393;-74
2021/08/12 02:22:58;;;;;;;0.40;0.10;;;;;;;17.82;62.74;100848.70;126556;1090;103100;-74
2021/08/12 02:25:30;;;;;;;0.40;0.10;;;;;;;17.81;62.75;100857.73;126337;1090;114337;-74
2021/08/12 02:28:47;;;;;;;0.40;0.10;;;;;;;17.89;62.83;100858.22;76876;1090;20108023;-74
2021/08/12 02:31:16;;;;;;;0.40;0.10;;;;;;;17.94;62.71;100858.04;100122;1090;20003380;-74
2021/08/12 02:33:46;;;;;;;0.40;0.10;;;;;;;17.98;62.40;100861.43;126573;1090;103317;-74
2021/08/12 02:36:13;;;;;;;0.40;0.10;;;;;;;17.93;62.35;100858.13;126607;1088;103202;-71
2021/08/12 02:38:42;;;;;;;0.40;0.10;;;;;;;17.94;62.41;100862.54;126472;1090;114526;-74
2021/08/12 02:41:12;;;;;;;0.40;0.10;;;;;;;17.95;62.33;100864.29;126581;1088;103035;-75
2021/08/12 02:43:41;;;;;;;0.40;0.10;;;;;;;17.94;62.27;100865.23;126498;1093;114380;-75
2021/08/12 02:46:08;;;;;;;0.40;0.10;;;;;;;17.86;62.76;100865.57;126562;1090;102869;-72
2021/08/12 02:48:36;;;;;;;0.40;0.10;;;;;;;17.81;62.74;100860.42;126466;1090;114277;-74
2021/08/12 02:51:04;;;;;;;0.40;0.10;;;;;;;17.82;62.67;100861.28;126647;1090;103080;-74
2021/08/12 02:53:33;;;;;;;0.40;0.10;;;;;;;17.81;62.71;100855.03;126589;1090;103022;-75
2021/08/12 02:56:06;;;;;;;0.40;0.10;;;;;;;17.82;62.70;100866.67;126536;1090;114317;-75
2021/08/12 02:58:36;;;;;;;0.40;0.10;;;;;;;17.79;62.85;100864.14;126672;1090;102878;-75
2021/08/12 03:01:04;;;;;;;0.40;0.10;;;;;;;17.68;63.21;100857.45;126413;1090;114644;-74
2021/08/12 03:03:43;;;;;;;0.40;0.10;;;;;;;17.73;63.09;100868.02;126856;1090;103032;-75
2021/08/12 03:06:17;;;;;;;0.40;0.10;;;;;;;17.74;62.97;100863.49;126521;1090;103052;-75
2021/08/12 03:08:46;;;;;;;0.40;0.10;;;;;;;17.72;62.83;100861.73;126432;1090;114118;-75
2021/08/12 03:11:18;;;;;;;0.40;0.10;;;;;;;17.75;62.76;100862.55;126566;1090;102911;-74
2021/08/12 03:13:46;;;;;;;0.40;0.10;;;;;;;17.66;62.88;100859.36;126504;1090;114280;-74
2021/08/12 03:16:14;;;;;;;0.40;0.10;;;;;;;17.64;63.17;100858.55;126568;1090;103022;-72
2021/08/12 03:18:41;;;;;;;0.40;0.10;;;;;;;17.62;63.08;100856.88;126410;1089;114488;-75
2021/08/12 03:21:13;;;;;;;0.40;0.10;;;;;;;17.59;63.11;100857.03;126571;1090;102885;-76
2021/08/12 03:23:41;;;;;;;0.40;0.10;;;;;;;17.54;63.34;100858.13;126630;1090;103323;-75
2021/08/12 03:26:09;;;;;;;0.40;0.10;;;;;;;17.48;63.44;100858.41;126495;1089;114283;-74
2021/08/12 03:28:36;;;;;;;0.40;0.10;;;;;;;17.46;63.58;100851.36;126578;1090;102961;-75
2021/08/12 03:31:04;;;;;;;0.40;0.10;;;;;;;17.35;63.92;100858.15;126439;1090;114456;-73
2021/08/12 03:33:31;;;;;;;0.40;0.10;;;;;;;17.33;63.89;100864.55;126634;1090;103023;-74
2021/08/12 03:35:59;;;;;;;0.40;0.10;;;;;;;17.40;63.83;100868.69;126597;1090;102878;-75
2021/08/12 03:38:27;;;;;;;0.40;0.10;;;;;;;17.48;63.90;100868.33;126479;1090;114307;-74
2021/08/12 03:40:54;;;;;;;0.40;0.10;;;;;;;17.46;63.87;100875.59;126589;1089;102876;-74
2021/08/12 03:43:23;;;;;;;0.40;0.10;;;;;;;17.33;64.12;100873.48;126419;1090;114301;-74
2021/08/12 03:45:50;;;;;;;0.40;0.10;;;;;;;17.33;64.17;100876.17;126539;1090;102967;-74
2021/08/12 03:48:18;;;;;;;0.40;0.10;;;;;;;17.35;64.17;100874.30;126545;1093;102878;-72
2021/08/12 03:50:45;;;;;;;0.40;0.10;;;;;;;17.34;64.15;100880.63;126441;1089;114091;-75
2021/08/12 03:53:12;;;;;;;0.40;0.10;;;;;;;17.37;64.19;100876.92;126588;1090;103030;-74
2021/08/12 03:55:39;;;;;;;0.40;0.10;;;;;;;17.43;64.28;100881.99;126438;1090;114369;-74
2021/08/12 03:58:06;;;;;;;0.40;0.10;;;;;;;17.45;64.38;100881.95;126600;1090;102892;-75
2021/08/12 04:00:33;;;;;;;0.40;0.10;;;;;;;17.50;64.44;100878.08;126471;1090;114462;-75
2021/08/12 04:03:01;;;;;;;0.40;0.10;;;;;;;17.51;64.30;100884.33;126576;1088;102956;-75
2021/08/12 04:05:29;;;;;;;0.40;0.10;;;;;;;17.53;63.97;100882.45;126604;1090;102877;-74
2021/08/12 04:07:56;;;;;;;0.40;0.10;;;;;;;17.62;63.86;100881.12;126434;1090;114303;-74
2021/08/12 04:10:23;;;;;;;0.40;0.10;;;;;;;17.68;63.96;100884.39;126686;1090;102887;-72
2021/08/12 04:12:51;;;;;;;0.40;0.10;;;;;;;17.76;63.84;100891.24;126398;1090;114488;-74
2021/08/12 04:15:19;;;;;;;0.40;0.10;;;;;;;17.78;63.54;100898.30;126555;1090;103380;-75
2021/08/12 04:17:46;;;;;;;0.40;0.10;;;;;;;17.72;63.53;100891.37;126498;1090;102882;-75
2021/08/12 04:20:13;;;;;;;0.40;0.10;;;;;;;17.77;63.37;100903.77;126375;1090;114301;-74
2021/08/12 04:22:40;;;;;;;0.40;0.10;;;;;;;17.81;63.30;100899.98;126583;1090;102906;-75
2021/08/12 04:25:08;;;;;;;0.40;0.10;;;;;;;17.82;63.37;100902.59;126436;1090;114627;-74
2021/08/12 04:27:37;;;;;;;0.40;0.10;;;;;;;17.87;63.07;100902.36;126535;1090;103010;-75
2021/08/12 04:30:08;;;;;;;0.40;0.10;;;;;;;17.81;63.31;100900.84;126585;1090;102905;-74
2021/08/12 04:32:36;;;;;;;0.40;0.10;;;;;;;17.67;63.56;100906.91;126386;1090;114931;-74
2021/08/12 04:35:07;;;;;;;0.40;0.10;;;;;;;17.72;63.69;100904.84;126562;1090;103030;-75
2021/08/12 04:37:42;;;;;;;0.40;0.10;;;;;;;17.82;63.46;100904.39;126419;1090;114710;-75
2021/08/12 04:40:20;;;;;;;0.40;0.10;;;;;;;17.80;63.16;100907.17;126600;1089;103050;-74
2021/08/12 04:42:49;;;;;;;0.40;0.10;;;;;;;17.80;63.79;100909.00;126526;1090;114445;-74
2021/08/12 04:45:17;;;;;;;0.40;0.10;;;;;;;17.83;63.68;100908.84;126616;1090;102874;-75
2021/08/12 04:47:44;;;;;;;0.40;0.10;;;;;;;17.84;63.66;100911.45;126561;1090;102967;-71
2021/08/12 04:50:13;;;;;;;0.40;0.08;;;;;;;17.81;63.79;100905.38;126405;1090;114283;-74
2021/08/12 04:52:40;;;;;;;0.40;0.10;;;;;;;17.83;63.76;100912.44;126667;1090;102889;-74
2021/08/12 04:55:10;;;;;;;0.40;0.10;;;;;;;17.89;64.00;100914.81;126428;1090;114568;-74
2021/08/12 04:57:37;;;;;;;0.40;0.10;;;;;;;17.93;63.81;100912.02;126480;1090;102898;-75
2021/08/12 05:00:05;;;;;;;0.40;0.10;;;;;;;17.95;63.77;100907.41;126613;1092;103475;-74
2021/08/12 05:02:32;;;;;;;0.40;0.10;;;;;;;17.95;63.92;100916.35;126399;1091;114340;-74
2021/08/12 05:05:00;;;;;;;0.40;0.10;;;;;;;17.94;63.93;100911.94;126570;1091;103027;-74
2021/08/12 05:07:27;;;;;;;0.40;0.10;;;;;;;17.97;64.06;100911.78;126488;1090;114272;-74
2021/08/12 05:09:54;;;;;;;0.40;0.10;;;;;;;18.00;63.72;100917.00;126611;1090;102936;-75
2021/08/12 05:12:22;;;;;;;0.40;0.10;;;;;;;18.03;63.78;100911.48;126624;1089;102987;-75
2021/08/12 05:14:50;;;;;;;0.40;0.10;;;;;;;18.07;63.91;100906.80;126504;1089;114104;-72
2021/08/12 05:17:17;;;;;;;0.40;0.10;;;;;;;18.15;63.56;100910.01;126578;1090;102905;-75
2021/08/12 05:19:45;;;;;;;0.40;0.10;;;;;;;18.25;63.52;100910.41;126444;1090;114245;-74
2021/08/12 05:22:13;;;;;;;0.40;0.10;;;;;;;18.27;63.20;100913.02;126611;1090;102914;-75
2021/08/12 05:24:40;;;;;;;0.40;0.10;;;;;;;18.28;63.49;100918.33;126534;1089;114440;-72
2021/08/12 05:27:07;;;;;;;0.40;0.10;;;;;;;18.34;63.66;100925.23;126577;1089;103107;-74
2021/08/12 05:29:34;;;;;;;0.40;0.10;;;;;;;18.37;63.45;100922.41;126628;1090;103378;-75
2021/08/12 05:32:01;;;;;;;0.40;0.10;;;;;;;18.40;63.40;100927.63;126420;1090;114278;-75
2021/08/12 05:34:29;;;;;;;0.40;0.10;;;;;;;18.43;63.18;100930.16;126574;1090;103053;-75
2021/08/12 05:36:56;;;;;;;0.40;0.10;;;;;;;18.47;63.24;100934.48;126452;1090;114449;-75
2021/08/12 05:39:23;;;;;;;0.40;0.10;;;;;;;18.53;63.23;100939.53;126523;1089;103011;-75
2021/08/12 05:41:50;;;;;;;0.40;0.10;;;;;;;18.54;63.36;100940.44;126578;1090;102953;-75
2021/08/12 05:44:17;;;;;;;0.40;0.10;;;;;;;18.58;62.92;100943.83;126490;1089;114251;-75
2021/08/12 05:46:45;;;;;;;0.40;0.10;;;;;;;18.61;63.02;100944.55;126626;1090;103341;-75
2021/08/12 05:49:12;;;;;;;0.40;0.10;;;;;;;18.72;63.09;100946.69;126498;1088;114290;-75
2021/08/12 05:51:39;;;;;;;0.40;0.10;;;;;;;18.75;62.79;100949.22;126519;1090;103041;-74
2021/08/12 05:54:07;;;;;;;0.40;0.10;;;;;;;18.83;62.75;100943.42;126531;1090;103032;-75
2021/08/12 05:56:36;;;;;;;0.40;0.10;;;;;;;18.88;62.42;100946.77;126470;1088;114318;-75
2021/08/12 05:59:04;;;;;;;0.40;0.10;;;;;;;18.91;62.38;100940.37;126560;1090;103029;-74
2021/08/12 06:01:31;;;;;;;0.40;0.10;;;;;;;18.88;62.27;100949.46;126379;1089;114251;-74
2021/08/12 06:03:59;;;;;;;0.40;0.10;;;;;;;18.88;62.31;100954.86;126368;1089;103052;-72
2021/08/12 06:06:26;;;;;;;0.40;0.10;;;;;;;18.91;62.51;100949.33;126416;1088;114639;-74
2021/08/12 06:08:53;;;;;;;0.40;0.10;;;;;;;19.00;62.26;100958.78;126513;1090;103059;-73
2021/08/12 06:11:21;;;;;;;0.40;0.10;;;;;;;19.07;62.00;100962.02;126385;1089;102906;-74
2021/08/12 06:13:48;;;;;;;0.40;0.10;;;;;;;19.14;61.62;100953.52;126331;1090;114338;-74
2021/08/12 06:16:15;;;;;;;0.40;0.10;;;;;;;19.17;61.50;100958.75;126454;1092;103026;-74
2021/08/12 06:18:42;;;;;;;0.40;0.10;;;;;;;19.24;60.97;100950.33;126401;1092;114473;-74
2021/08/12 06:21:10;;;;;;;0.40;0.10;;;;;;;19.33;61.44;100955.23;126450;1090;103013;-74
2021/08/12 06:23:37;;;;;;;0.40;0.10;;;;;;;19.34;61.48;100955.15;126435;1090;102887;-74
2021/08/12 06:26:04;;;;;;;0.40;0.10;;;;;;;19.42;61.33;100951.14;126355;1090;114624;-75
2021/08/12 06:28:31;;;;;;;0.40;0.10;;;;;;;19.44;61.44;100957.34;126474;1090;105037;-74
2021/08/12 06:30:58;;;;;;;0.40;0.10;;;;;;;19.50;61.04;100952.48;126488;1089;114469;-74
2021/08/12 06:33:26;;;;;;;0.40;0.07;;;;;;;19.56;60.73;100959.37;126493;1088;102958;-73
2021/08/12 06:35:53;;;;;;;0.40;0.10;;;;;;;19.55;60.40;100961.21;126579;1089;103342;-74
2021/08/12 06:38:20;;;;;;;0.40;0.10;;;;;;;19.60;60.72;100952.84;126423;1090;114307;-74
2021/08/12 06:40:47;;;;;;;0.40;0.10;;;;;;;19.68;60.82;100963.23;126545;1090;102913;-73
2021/08/12 06:43:14;;;;;;;0.40;0.10;;;;;;;19.79;61.07;100957.22;126360;1088;114285;-74
2021/08/12 06:45:44;;;;;;;0.40;0.10;;;;;;;19.90;60.00;100959.34;126497;1090;102881;-74
2021/08/12 06:48:11;;;;;;;0.40;0.10;;;;;;;19.97;59.93;100956.21;126623;1090;102959;-74
2021/08/12 06:50:41;;;;;;;0.40;0.10;;;;;;;20.08;59.84;100962.84;126445;1090;114296;-74
2021/08/12 06:53:08;;;;;;;0.40;0.10;;;;;;;20.14;59.76;100957.95;126577;1090;102936;-74
2021/08/12 06:55:35;;;;;;;0.40;0.10;;;;;;;20.15;58.99;100959.71;126266;1088;114497;-74
2021/08/12 06:58:03;;;;;;;0.40;0.10;;;;;;;20.19;59.31;100950.45;126545;1090;103073;-74
2021/08/12 07:00:30;;;;;;;0.40;0.07;;;;;;;20.22;58.38;100954.81;126437;1090;114440;-74
2021/08/12 07:02:57;;;;;;;0.40;0.10;;;;;;;20.26;57.93;100958.19;126424;1090;103060;-74
2021/08/12 07:05:25;;;;;;;0.40;0.10;;;;;;;20.29;57.70;100963.45;126548;1090;103032;-74
2021/08/12 07:07:52;;;;;;;0.40;0.10;;;;;;;20.34;57.40;100964.02;126429;1090;114283;-74
2021/08/12 07:10:21;;;;;;;0.40;0.10;;;;;;;20.44;58.20;100965.23;126548;1090;102900;-74
2021/08/12 07:12:48;;;;;;;0.40;0.10;;;;;;;20.52;57.10;100965.65;126312;1088;114738;-74
2021/08/12 07:15:15;;;;;;;0.40;0.00;;;;;;;20.53;56.65;100964.70;126456;1092;102903;-73
2021/08/12 07:17:42;;;;;;;0.40;0.10;;;;;;;20.53;55.89;100969.25;126594;1090;102939;-74
2021/08/12 07:20:10;;;;;;;0.40;0.10;;;;;;;20.53;56.79;100970.11;126393;1090;114380;-74
2021/08/12 07:22:39;;;;;;;0.40;0.00;;;;;;;20.62;56.36;100974.12;126632;1090;103414;-74
2021/08/12 07:25:06;;;;;;;0.40;0.00;;;;;;;20.65;55.92;100973.06;126428;1090;114558;-74
2021/08/12 07:27:34;;;;;;;0.40;0.10;;;;;;;20.68;55.33;100973.73;126559;1090;102874;-73
2021/08/12 07:30:01;;;;;;;0.40;0.10;;;;;;;20.75;55.20;100970.70;126562;1090;103228;-74
2021/08/12 07:32:28;;;;;;;0.40;0.00;;;;;;;20.86;55.49;100976.36;126340;1090;114415;-74
2021/08/12 07:34:55;;;;;;;0.40;0.10;;;;;;;20.93;55.06;100976.86;126493;1090;102908;-75
2021/08/12 07:37:22;;;;;;;0.40;0.00;;;;;;;20.96;55.38;100974.81;126483;1089;114660;-75
2021/08/12 07:39:50;;;;;;;0.40;0.10;;;;;;;20.99;54.53;100974.64;126445;1090;102935;-76
2021/08/12 07:42:20;;;;;;;0.40;0.10;;;;;;;21.07;53.84;100976.00;126482;1090;103012;-76
2021/08/12 07:44:47;;;;;;;0.40;0.10;;;;;;;21.19;54.76;100978.84;126316;1090;114394;-76
2021/08/12 07:47:14;;;;;;;0.40;0.10;;;;;;;21.37;54.57;100981.36;126500;1088;102924;-76
2021/08/12 07:49:42;;;;;;;0.40;0.10;;;;;;;21.39;52.89;100979.41;126367;1090;114448;-76
2021/08/12 07:52:09;;;;;;;0.40;0.00;;;;;;;21.47;53.54;100979.83;126509;1088;102893;-75
2021/08/12 07:54:37;;;;;;;0.40;0.10;;;;;;;21.48;53.42;100977.97;126405;1092;114796;-74
2021/08/12 07:57:06;;;;;;;0.40;0.10;;;;;;;21.51;52.83;100980.48;126602;1090;102904;-75
2021/08/12 07:59:33;;;;;;;0.40;0.00;;;;;;;21.57;53.26;100979.28;126557;1090;103377;-76
2021/08/12 08:02:01;;;;;;;0.40;0.00;;;;;;;21.66;52.81;100978.66;126357;1090;114348;-76
2021/08/12 08:04:28;;;;;;;0.40;0.00;;;;;;;21.78;52.35;100977.02;126537;1093;102959;-76
2021/08/12 08:06:56;;;;;;;0.40;0.00;;;;;;;21.78;53.34;100977.02;126392;1090;114523;-75
2021/08/12 08:09:23;;;;;;;0.40;0.10;;;;;;;21.88;52.19;100976.34;126474;1090;103117;-74
2021/08/12 08:11:51;;;;;;;0.40;0.00;;;;;;;21.93;52.39;100980.59;126493;1090;103006;-77
2021/08/12 08:14:18;;;;;;;0.40;0.00;;;;;;;21.99;51.70;100982.89;126380;1090;114308;-76
2021/08/12 08:16:45;;;;;;;0.40;0.00;;;;;;;22.05;51.79;100987.92;126541;1092;103003;-75
2021/08/12 08:19:16;;;;;;;0.40;0.00;;;;;;;22.03;51.33;100992.56;126351;1090;116045;-75
2021/08/12 08:21:43;;;;;;;0.40;0.00;;;;;;;22.06;51.63;100989.67;126503;1090;102913;-76
2021/08/12 08:24:11;;;;;;;0.40;0.00;;;;;;;22.18;52.35;100988.00;126569;1088;103017;-78
2021/08/12 08:26:38;;;;;;;0.40;0.00;;;;;;;22.28;51.02;100988.25;126403;1091;114388;-74
2021/08/12 08:29:06;;;;;;;0.40;0.00;;;;;;;22.30;51.24;100987.18;126761;1088;113791;-87
2021/08/12 08:31:33;;;;;;;0.40;0.00;;;;;;;22.25;50.47;100989.33;126549;1090;116223;-87
2021/08/12 08:34:00;;;;;;;0.40;0.00;;;;;;;22.22;50.34;100992.25;126692;1090;103026;-87
2021/08/12 08:36:28;;;;;;;0.40;0.00;;;;;;;22.33;51.20;100989.68;126588;1093;115528;-88
2021/08/12 08:38:55;;;;;;;0.40;0.00;;;;;;;22.46;50.84;100991.60;126674;1089;102969;-89
2021/08/12 08:41:22;;;;;;;0.40;0.00;;;;;;;22.49;51.09;100988.70;126646;1092;102993;-87
2021/08/12 08:43:53;;;;;;;0.40;0.03;;;;;;;22.54;50.71;100984.70;126515;1093;114784;-88
2021/08/12 08:46:21;;;;;;;0.40;0.00;;;;;;;22.62;50.42;100991.44;126744;1090;103103;-88
2021/08/12 08:48:49;;;;;;;0.40;0.00;;;;;;;22.79;51.17;100988.47;126598;1092;115339;-89
2021/08/12 08:51:17;;;;;;;0.40;0.00;;;;;;;23.06;50.70;100987.53;126664;1091;103312;-88
2021/08/12 08:53:44;;;;;;;0.40;0.03;;;;;;;23.23;49.54;100989.08;126676;1093;101902;-88
2021/08/12 08:56:12;;;;;;;0.40;0.00;;;;;;;23.30;48.21;100986.80;126581;1090;114293;-89
2021/08/12 08:58:43;;;;;;;0.40;0.00;;;;;;;23.47;48.25;100986.50;126601;1092;103160;-89
2021/08/12 09:01:11;;;;;;;0.40;0.00;;;;;;;23.64;48.97;100978.97;126589;1089;116089;-89
2021/08/12 09:03:38;;;;;;;0.40;0.00;;;;;;;23.71;47.76;100980.25;126728;1090;103106;-89
2021/08/12 09:06:06;;;;;;;0.40;0.00;;;;;;;23.72;47.87;100987.43;126653;1089;102882;-88
2021/08/12 09:08:33;;;;;;;0.40;0.00;;;;;;;23.62;48.52;100987.23;126441;1090;114666;-88
2021/08/12 09:11:00;;;;;;;0.40;0.00;;;;;;;23.82;48.19;100991.23;126631;1090;102898;-88
2021/08/12 09:13:29;;;;;;;0.40;0.00;;;;;;;23.77;47.18;100992.55;126620;1090;114729;-89
2021/08/12 09:15:59;;;;;;;0.40;0.00;;;;;;;23.86;47.05;100998.19;126700;1090;102932;-89
2021/08/12 09:18:28;;;;;;;0.40;0.00;;;;;;;24.09;47.25;101000.24;126776;1090;103012;-89
2021/08/12 09:20:58;;;;;;;0.40;0.00;;;;;;;24.19;46.46;100993.11;126534;1090;114113;-89
2021/08/12 09:23:27;;;;;;;0.40;0.00;;;;;;;24.07;46.51;100999.47;126769;1091;102871;-88
2021/08/12 09:25:56;;;;;;;0.40;0.00;;;;;;;23.98;47.03;101003.76;126624;1088;114828;-90
2021/08/12 09:28:30;;;;;;;0.40;0.10;;;;;;;24.06;46.86;101003.17;126710;1089;102966;-89
2021/08/12 09:31:00;;;;;;;0.40;0.10;;;;;;;25.92;43.32;100996.09;126616;1090;114008;-89
2021/08/12 09:33:34;;;;;;;0.40;0.00;;;;;;;27.57;39.71;100994.11;126599;1090;103335;-88
2021/08/12 09:36:03;;;;;;;0.40;0.00;;;;;;;27.74;39.52;100998.05;126704;1090;102890;-89
2021/08/12 09:38:37;;;;;;;0.40;0.00;;;;;;;27.99;37.73;100991.23;126627;1089;114066;-89
2021/08/12 09:41:41;;;;;;;0.40;0.00;;;;;;;27.77;37.99;100995.06;126582;1090;104314;-89
2021/08/12 09:44:30;;;;;;;0.40;0.00;;;;;;;28.38;37.61;100985.88;127133;1090;113865;-87
2021/08/12 09:46:58;;;;;;;0.40;0.00;;;;;;;28.63;37.98;100989.05;127779;1089;101442;-87
2021/08/12 09:49:38;;;;;;;0.40;0.00;;;;;;;30.13;35.11;100988.43;126634;1090;115338;-88
2021/08/12 09:52:42;;;;;;;0.40;0.00;;;;;;;30.44;33.70;100988.92;126817;1090;103004;-88
2021/08/12 09:55:19;;;;;;;0.40;0.00;;;;;;;31.53;32.49;100997.94;126437;1090;114847;-89
2021/08/12 09:57:53;;;;;;;0.40;0.00;;;;;;;32.71;31.60;100985.27;126608;1090;104116;-88
2021/08/12 10:00:24;;;;;;;0.40;0.00;;;;;;;31.74;31.56;100989.30;126693;1090;102977;-87
2021/08/12 10:02:52;;;;;;;0.40;0.00;;;;;;;30.67;32.17;100994.87;126562;1090;113600;-88
2021/08/12 10:05:20;;;;;;;0.40;0.00;;;;;;;30.21;32.18;100995.91;126732;1090;102875;-88
2021/08/12 10:07:52;;;;;;;0.40;0.00;;;;;;;30.14;33.33;100995.66;126553;1089;114762;-87
2021/08/12 10:10:24;;;;;;;0.40;0.00;;;;;;;29.76;32.66;100992.06;126636;1090;102885;-88
2021/08/12 10:12:52;;;;;;;0.40;0.00;;;;;;;30.17;31.59;101000.84;127533;1092;113849;-88
2021/08/12 10:15:33;;;;;;;0.40;0.00;;;;;;;30.62;30.79;100999.12;127321;1090;102893;-87
2021/08/12 10:18:03;;;;;;;0.40;0.00;;;;;;;30.67;31.17;101002.23;126643;1090;103033;-88
2021/08/12 10:20:32;;;;;;;0.40;0.00;;;;;;;30.68;31.89;100996.60;126611;1090;116192;-88
2021/08/12 10:23:02;;;;;;;0.40;0.00;;;;;;;31.43;31.44;100999.93;126562;1093;102879;-88
2021/08/12 10:25:31;;;;;;;0.40;0.00;;;;;;;32.59;29.32;100993.89;126589;1093;116149;-88
2021/08/12 10:28:01;;;;;;;0.40;0.00;;;;;;;33.92;27.97;100991.85;126626;1090;103180;-89
2021/08/12 10:30:28;;;;;;;0.40;0.00;;;;;;;34.57;26.23;100995.31;126636;1091;102950;-89
2021/08/12 10:32:59;;;;;;;0.40;0.00;;;;;;;33.52;26.62;101002.83;126560;1090;114524;-88
2021/08/12 10:35:30;;;;;;;0.40;0.00;;;;;;;32.74;26.91;101001.53;126622;1093;102963;-89
2021/08/12 10:37:59;;;;;;;0.40;0.00;;;;;;;32.28;28.42;101004.67;126704;1090;114846;-89
2021/08/12 10:40:29;;;;;;;0.40;0.00;;;;;;;33.55;26.03;100988.69;126682;1090;102897;-88
2021/08/12 10:42:58;;;;;;;0.40;0.00;;;;;;;34.56;25.22;100997.20;126589;1093;115051;-88
2021/08/12 10:45:26;;;;;;;0.40;0.00;;;;;;;35.08;24.47;101000.27;126801;1090;103048;-89
2021/08/12 10:47:58;;;;;;;0.40;0.00;;;;;;;35.70;24.07;100996.35;126679;1093;102930;-89
2021/08/12 10:50:34;;;;;;;0.40;0.00;;;;;;;36.41;23.83;100992.16;126633;1089;114646;-89
2021/08/12 10:53:01;;;;;;;0.40;0.00;;;;;;;35.45;24.42;100998.55;126717;1090;102948;-89
2021/08/12 10:55:29;;;;;;;0.40;0.00;;;;;;;34.02;25.03;100998.03;126643;1091;113759;-89
2021/08/12 10:58:23;;;;;;;0.40;0.00;;;;;;;33.69;26.62;101006.41;126800;1089;102975;-88
2021/08/12 11:00:56;;;;;;;0.40;0.00;;;;;;;33.19;26.54;101000.13;126585;1090;116276;-89
2021/08/12 11:03:44;;;;;;;0.40;0.00;;;;;;;32.24;27.94;101004.14;126718;1090;102894;-88
2021/08/12 11:06:19;;;;;;;0.40;0.00;;;;;;;31.17;28.99;101000.80;126695;1090;103543;-88
2021/08/12 11:08:50;;;;;;;0.40;0.00;;;;;;;30.40;29.26;100995.75;126707;1089;113726;-87
2021/08/12 11:11:37;;;;;;;0.40;0.00;;;;;;;30.04;29.80;101003.94;126774;1090;102865;-87
2021/08/12 11:14:43;;;;;;;0.40;0.00;;;;;;;29.28;31.90;100993.95;126518;1093;114690;-88
2021/08/12 11:17:11;;;;;;;0.40;0.00;;;;;;;28.88;33.03;100998.60;126649;1090;101705;-89
2021/08/12 11:19:39;;;;;;;0.40;0.00;;;;;;;28.40;34.09;100994.80;126540;1090;114664;-89